Time;durP1;ratioP1;P1;durP2;ratioP2;P2;SDS_P1;SDS_P2;PMS_P1;PMS_P2;Temp;Humidity;BMP_temperature;BMP_pressure;BME280_temperature;BME280_humidity;BME280_pressure;Samples;Min_cycle;Max_cycle;Signal;HPM_P1;HPM_P2
2021/09/23 00:00:23;;;;;;;;;16.75;12.00;;;;;;;;5095952;27;45536;-79
2021/09/23 00:03:09;;;;;;;;;15.75;12.25;;;;;;;;5088591;27;45417;-78
2021/09/23 00:05:34;;;;;;;;;16.75;13.75;;;;;;;;5094632;27;45514;-78
2021/09/23 00:08:00;;;;;;;;;15.00;14.33;;;;;;;;5093352;27;45418;-78
2021/09/23 00:10:28;;;;;;;;;18.50;14.00;;;;;;;;5093651;27;45458;-78
2021/09/23 00:12:55;;;;;;;;;14.50;12.25;;;;;;;;5099133;27;45554;-78
2021/09/23 00:15:21;;;;;;;;;16.75;13.00;;;;;;;;5088893;27;45687;-78
2021/09/23 00:17:48;;;;;;;;;13.25;11.25;;;;;;;;5089274;27;45595;-78
2021/09/23 00:20:24;;;;;;;;;14.00;13.25;;;;;;;;5084076;27;46049;-78
2021/09/23 00:22:50;;;;;;;;;14.00;12.25;;;;;;;;5090548;27;45416;-78
2021/09/23 00:25:16;;;;;;;;;19.00;12.25;;;;;;;;5096842;27;45360;-78
2021/09/23 00:27:41;;;;;;;;;16.25;12.75;;;;;;;;5093479;27;47309;-78
2021/09/23 00:30:07;;;;;;;;;19.33;14.00;;;;;;;;5094724;27;45844;-78
2021/09/23 00:32:33;;;;;;;;;14.00;12.75;;;;;;;;5090576;27;45484;-78
2021/09/23 00:34:58;;;;;;;;;18.00;13.00;;;;;;;;5094010;27;45364;-78
2021/09/23 00:37:23;;;;;;;;;16.75;12.75;;;;;;;;5095194;27;46297;-79
2021/09/23 00:39:48;;;;;;;;;16.00;16.00;;;;;;;;5095475;27;45924;-78
2021/09/23 00:42:14;;;;;;;;;12.33;12.33;;;;;;;;5093786;27;45516;-78
2021/09/23 00:44:39;;;;;;;;;16.00;13.25;;;;;;;;5096256;27;45379;-78
2021/09/23 00:47:04;;;;;;;;;15.75;12.25;;;;;;;;5091087;27;45937;-78
2021/09/23 00:49:30;;;;;;;;;12.25;12.00;;;;;;;;5097363;27;45552;-78
2021/09/23 00:51:55;;;;;;;;;15.67;13.67;;;;;;;;5094652;27;45576;-78
2021/09/23 00:54:20;;;;;;;;;14.33;12.00;;;;;;;;5095268;27;45525;-78
2021/09/23 00:56:45;;;;;;;;;12.00;12.00;;;;;;;;5093329;27;46019;-78
2021/09/23 00:59:10;;;;;;;;;12.33;12.33;;;;;;;;5089933;27;45506;-78
2021/09/23 01:01:36;;;;;;;;;15.67;12.33;;;;;;;;5101400;27;45557;-78
2021/09/23 01:04:01;;;;;;;;;15.25;12.25;;;;;;;;5096893;27;45460;-79
2021/09/23 01:06:27;;;;;;;;;16.33;12.67;;;;;;;;5093144;27;46167;-79
2021/09/23 01:08:56;;;;;;;;;16.75;14.00;;;;;;;;5089798;27;45720;-79
2021/09/23 01:11:21;;;;;;;;;17.75;14.00;;;;;;;;5092232;27;45639;-79
2021/09/23 01:13:46;;;;;;;;;14.50;12.75;;;;;;;;5096190;27;45420;-78
2021/09/23 01:16:12;;;;;;;;;20.33;14.67;;;;;;;;5089169;27;45423;-79
2021/09/23 01:18:38;;;;;;;;;14.00;12.50;;;;;;;;5089650;27;45423;-78
2021/09/23 01:21:06;;;;;;;;;13.75;13.00;;;;;;;;5093570;27;45817;-78
2021/09/23 01:23:43;;;;;;;;;18.25;14.75;;;;;;;;5092407;27;45507;-79
2021/09/23 01:26:09;;;;;;;;;13.50;12.50;;;;;;;;5090395;27;45554;-78
2021/09/23 01:28:35;;;;;;;;;19.25;13.00;;;;;;;;5095972;27;45845;-78
2021/09/23 01:31:00;;;;;;;;;16.75;12.75;;;;;;;;5091706;27;46044;-78
2021/09/23 01:33:26;;;;;;;;;17.75;14.50;;;;;;;;5096780;27;45604;-78
2021/09/23 01:35:51;;;;;;;;;14.33;14.33;;;;;;;;5090505;27;46506;-79
2021/09/23 01:38:16;;;;;;;;;14.67;13.33;;;;;;;;5093841;27;45659;-79
2021/09/23 01:40:41;;;;;;;;;16.67;15.00;;;;;;;;5096708;27;45535;-79
2021/09/23 01:43:06;;;;;;;;;16.67;14.00;;;;;;;;5089350;27;45950;-79
2021/09/23 01:45:32;;;;;;;;;14.33;14.33;;;;;;;;5088250;27;47474;-78
2021/09/23 01:47:57;;;;;;;;;21.00;14.00;;;;;;;;5089358;27;49011;-78
2021/09/23 01:50:22;;;;;;;;;17.67;15.33;;;;;;;;5088604;27;45634;-78
2021/09/23 01:52:47;;;;;;;;;14.33;13.00;;;;;;;;5092988;27;45483;-78
2021/09/23 01:55:13;;;;;;;;;22.67;14.33;;;;;;;;5086999;27;48338;-79
2021/09/23 01:57:38;;;;;;;;;18.33;12.67;;;;;;;;5088426;27;45524;-79
2021/09/23 02:00:03;;;;;;;;;17.50;12.25;;;;;;;;5107334;27;45791;-78
2021/09/23 02:02:29;;;;;;;;;17.25;15.25;;;;;;;;5093091;27;45466;-79
2021/09/23 02:04:54;;;;;;;;;16.00;14.33;;;;;;;;5096572;27;45676;-79
2021/09/23 02:07:20;;;;;;;;;16.75;13.00;;;;;;;;5099893;27;45438;-79
2021/09/23 02:09:45;;;;;;;;;15.00;13.50;;;;;;;;5095028;27;45410;-78
2021/09/23 02:12:10;;;;;;;;;14.33;14.33;;;;;;;;5091880;27;45488;-78
2021/09/23 02:14:35;;;;;;;;;17.33;15.33;;;;;;;;5092849;27;45590;-79
2021/09/23 02:17:00;;;;;;;;;14.00;11.67;;;;;;;;5094738;27;45550;-79
2021/09/23 02:19:26;;;;;;;;;13.50;12.75;;;;;;;;5097741;27;45577;-79
2021/09/23 02:21:51;;;;;;;;;16.75;15.50;;;;;;;;5095955;27;45653;-78
2021/09/23 02:24:16;;;;;;;;;14.67;14.67;;;;;;;;5095833;27;45954;-79
2021/09/23 02:26:41;;;;;;;;;19.00;15.00;;;;;;;;5095704;27;45489;-79
2021/09/23 02:29:07;;;;;;;;;14.00;12.33;;;;;;;;5091162;27;45407;-79
2021/09/23 02:31:32;;;;;;;;;13.00;13.00;;;;;;;;5096040;27;45528;-78
2021/09/23 02:33:57;;;;;;;;;15.50;12.00;;;;;;;;5098092;27;45429;-79
2021/09/23 02:36:22;;;;;;;;;18.67;14.00;;;;;;;;5091519;27;45596;-78
2021/09/23 02:38:47;;;;;;;;;14.67;12.67;;;;;;;;5096656;27;45541;-78
2021/09/23 02:41:13;;;;;;;;;14.33;14.00;;;;;;;;5091912;27;45406;-78
2021/09/23 02:43:38;;;;;;;;;13.67;13.00;;;;;;;;5100835;27;45805;-78
2021/09/23 02:46:03;;;;;;;;;20.00;13.67;;;;;;;;5096262;27;45629;-78
2021/09/23 02:48:28;;;;;;;;;16.67;14.00;;;;;;;;5096729;27;45458;-78
2021/09/23 02:50:53;;;;;;;;;17.00;15.33;;;;;;;;5097628;27;45565;-78
2021/09/23 02:53:19;;;;;;;;;15.33;13.33;;;;;;;;5093125;27;45697;-79
2021/09/23 02:55:45;;;;;;;;;16.50;16.00;;;;;;;;5098371;27;45636;-78
2021/09/23 02:58:10;;;;;;;;;18.00;16.00;;;;;;;;5096860;27;45580;-78
2021/09/23 03:00:35;;;;;;;;;10.67;9.67;;;;;;;;5094014;27;46747;-78
2021/09/23 03:03:00;;;;;;;;;19.67;15.33;;;;;;;;5094479;27;45528;-78
2021/09/23 03:05:26;;;;;;;;;17.33;16.33;;;;;;;;5095931;27;45601;-79
2021/09/23 03:07:51;;;;;;;;;14.33;14.33;;;;;;;;5099473;27;45433;-78
2021/09/23 03:10:16;;;;;;;;;17.00;16.00;;;;;;;;5097554;27;45705;-79
2021/09/23 03:12:41;;;;;;;;;17.33;16.00;;;;;;;;5096619;27;45579;-78
2021/09/23 03:15:07;;;;;;;;;23.00;16.67;;;;;;;;5094515;27;45393;-78
2021/09/23 03:17:32;;;;;;;;;16.50;15.25;;;;;;;;5092403;27;45577;-78
2021/09/23 03:19:57;;;;;;;;;17.33;15.67;;;;;;;;5094045;27;45341;-78
2021/09/23 03:22:23;;;;;;;;;15.00;13.75;;;;;;;;5100117;27;45933;-79
2021/09/23 03:24:48;;;;;;;;;17.25;14.75;;;;;;;;5096594;27;45579;-78
2021/09/23 03:27:14;;;;;;;;;18.00;13.67;;;;;;;;5092701;27;45339;-79
2021/09/23 03:29:39;;;;;;;;;20.00;15.25;;;;;;;;5090263;27;45447;-79
2021/09/23 03:32:04;;;;;;;;;15.33;15.33;;;;;;;;5092217;27;46106;-79
2021/09/23 03:34:29;;;;;;;;;17.25;16.00;;;;;;;;5099776;27;45451;-79
2021/09/23 03:36:55;;;;;;;;;18.67;16.00;;;;;;;;5095110;27;47062;-78
2021/09/23 03:39:20;;;;;;;;;22.33;18.00;;;;;;;;5097290;27;45596;-79
2021/09/23 03:41:45;;;;;;;;;17.00;16.67;;;;;;;;5091974;27;45682;-79
2021/09/23 03:44:10;;;;;;;;;18.25;16.75;;;;;;;;5090444;27;45447;-79
2021/09/23 03:46:36;;;;;;;;;19.33;16.33;;;;;;;;5098729;27;45540;-79
2021/09/23 03:49:01;;;;;;;;;22.75;18.25;;;;;;;;5098273;27;45315;-79
2021/09/23 03:51:26;;;;;;;;;17.00;14.33;;;;;;;;5095849;27;46253;-78
2021/09/23 03:53:51;;;;;;;;;17.33;15.00;;;;;;;;5094380;27;45591;-79
2021/09/23 03:56:17;;;;;;;;;18.50;17.00;;;;;;;;5092019;27;45499;-78
2021/09/23 03:58:42;;;;;;;;;18.25;15.75;;;;;;;;5095491;27;45389;-78
2021/09/23 04:01:08;;;;;;;;;21.25;17.25;;;;;;;;5090749;27;46003;-78
2021/09/23 04:03:33;;;;;;;;;19.00;15.75;;;;;;;;5095225;27;45508;-79
2021/09/23 04:05:59;;;;;;;;;17.00;14.00;;;;;;;;5084558;27;45532;-78
2021/09/23 04:08:24;;;;;;;;;18.67;15.67;;;;;;;;5091079;27;45575;-79
2021/09/23 04:10:49;;;;;;;;;18.33;16.33;;;;;;;;5093011;27;46245;-78
2021/09/23 04:13:14;;;;;;;;;18.33;16.67;;;;;;;;5094034;27;45486;-78
2021/09/23 04:15:39;;;;;;;;;19.00;17.33;;;;;;;;5088885;27;50415;-79
2021/09/23 04:18:05;;;;;;;;;19.75;17.00;;;;;;;;5096302;27;45614;-79
2021/09/23 04:20:30;;;;;;;;;22.50;20.00;;;;;;;;5089509;27;46120;-78
2021/09/23 04:22:56;;;;;;;;;21.00;17.75;;;;;;;;5099557;27;45791;-78
2021/09/23 04:25:21;;;;;;;;;17.75;17.75;;;;;;;;5096260;27;45523;-78
2021/09/23 04:27:46;;;;;;;;;20.33;16.67;;;;;;;;5096488;27;45404;-78
2021/09/23 04:30:12;;;;;;;;;19.67;16.00;;;;;;;;5095759;27;45327;-78
2021/09/23 04:32:37;;;;;;;;;22.75;16.25;;;;;;;;5095457;27;45562;-78
2021/09/23 04:35:02;;;;;;;;;20.00;16.50;;;;;;;;5089213;27;45735;-78
2021/09/23 04:37:28;;;;;;;;;19.25;15.75;;;;;;;;5095559;27;45709;-78
2021/09/23 04:39:53;;;;;;;;;18.67;17.00;;;;;;;;5092395;27;45417;-78
2021/09/23 04:42:18;;;;;;;;;21.00;18.00;;;;;;;;5094440;27;45540;-78
2021/09/23 04:44:43;;;;;;;;;18.67;16.67;;;;;;;;5094924;27;45628;-78
2021/09/23 04:47:08;;;;;;;;;21.00;19.00;;;;;;;;5090157;27;45397;-78
2021/09/23 04:49:34;;;;;;;;;20.00;18.67;;;;;;;;5096055;27;45931;-78
2021/09/23 04:51:59;;;;;;;;;20.33;18.33;;;;;;;;5093808;27;45339;-78
2021/09/23 04:54:24;;;;;;;;;20.75;18.00;;;;;;;;5094021;27;45667;-78
2021/09/23 04:56:50;;;;;;;;;20.33;17.67;;;;;;;;5095378;27;45386;-78
2021/09/23 04:59:15;;;;;;;;;18.00;18.00;;;;;;;;5089493;27;45372;-79
2021/09/23 05:01:40;;;;;;;;;21.25;19.25;;;;;;;;5085605;27;45540;-80
2021/09/23 05:04:05;;;;;;;;;18.75;17.50;;;;;;;;5093954;27;45477;-80
2021/09/23 05:06:31;;;;;;;;;20.67;20.00;;;;;;;;5094117;27;45525;-77
2021/09/23 05:08:56;;;;;;;;;25.00;18.00;;;;;;;;5089829;27;47723;-79
2021/09/23 05:11:23;;;;;;;;;20.00;18.67;;;;;;;;5090802;27;45915;-79
2021/09/23 05:13:49;;;;;;;;;18.75;16.75;;;;;;;;5092916;27;45486;-79
2021/09/23 05:16:14;;;;;;;;;19.00;16.33;;;;;;;;5088779;27;45376;-77
2021/09/23 05:18:39;;;;;;;;;18.00;17.00;;;;;;;;5087056;27;45610;-79
2021/09/23 05:21:04;;;;;;;;;21.67;17.00;;;;;;;;5094497;27;45422;-79
2021/09/23 05:23:29;;;;;;;;;15.00;15.00;;;;;;;;5095610;27;45523;-79
2021/09/23 05:25:55;;;;;;;;;20.00;18.00;;;;;;;;5089537;27;45499;-79
2021/09/23 05:28:20;;;;;;;;;20.00;17.33;;;;;;;;5092445;27;46608;-79
2021/09/23 05:30:45;;;;;;;;;17.33;17.33;;;;;;;;5088716;27;45628;-79
2021/09/23 05:33:12;;;;;;;;;19.00;16.00;;;;;;;;5089297;27;45414;-79
2021/09/23 05:35:37;;;;;;;;;20.50;17.50;;;;;;;;5081889;27;45531;-80
2021/09/23 05:38:02;;;;;;;;;14.75;14.75;;;;;;;;5089568;27;45963;-78
2021/09/23 05:40:27;;;;;;;;;19.33;17.67;;;;;;;;5096178;27;45514;-79
2021/09/23 05:42:53;;;;;;;;;23.00;18.33;;;;;;;;5094369;27;45414;-79
2021/09/23 05:45:18;;;;;;;;;19.33;18.00;;;;;;;;5096408;27;45495;-79
2021/09/23 05:47:43;;;;;;;;;20.33;17.67;;;;;;;;5095658;27;46023;-79
2021/09/23 05:50:10;;;;;;;;;20.50;16.75;;;;;;;;5091993;27;45393;-80
2021/09/23 05:52:35;;;;;;;;;21.75;18.00;;;;;;;;5098922;27;45553;-80
2021/09/23 05:55:01;;;;;;;;;22.33;16.67;;;;;;;;5091673;27;45574;-78
2021/09/23 05:57:33;;;;;;;;;17.00;16.00;;;;;;;;5096309;27;46660;-79
2021/09/23 05:59:58;;;;;;;;;22.50;19.50;;;;;;;;5095904;27;45573;-80
2021/09/23 06:02:23;;;;;;;;;19.00;17.50;;;;;;;;5093008;27;45477;-77
2021/09/23 06:04:49;;;;;;;;;18.00;16.67;;;;;;;;5096118;27;45422;-79
2021/09/23 06:07:14;;;;;;;;;18.33;17.00;;;;;;;;5095739;27;48449;-79
2021/09/23 06:09:39;;;;;;;;;21.33;18.33;;;;;;;;5092038;27;45767;-79
2021/09/23 06:12:04;;;;;;;;;26.00;20.67;;;;;;;;5097938;27;45388;-80
2021/09/23 06:14:31;;;;;;;;;20.50;17.50;;;;;;;;5086121;27;45573;-79
2021/09/23 06:16:57;;;;;;;;;22.75;20.00;;;;;;;;5089340;27;45550;-79
2021/09/23 06:19:22;;;;;;;;;21.00;16.50;;;;;;;;5095445;27;45516;-79
2021/09/23 06:21:47;;;;;;;;;21.25;16.50;;;;;;;;5087895;27;46162;-80
2021/09/23 06:24:13;;;;;;;;;24.33;17.33;;;;;;;;5089825;27;45596;-80
2021/09/23 06:26:38;;;;;;;;;16.67;15.33;;;;;;;;5095481;27;46290;-81
2021/09/23 06:29:03;;;;;;;;;22.33;19.00;;;;;;;;5094114;27;45545;-81
2021/09/23 06:31:28;;;;;;;;;23.50;20.75;;;;;;;;5094521;27;45642;-81
2021/09/23 06:33:54;;;;;;;;;20.67;18.00;;;;;;;;5097062;27;45559;-81
2021/09/23 06:36:19;;;;;;;;;20.25;19.50;;;;;;;;5094680;27;46108;-80
2021/09/23 06:38:44;;;;;;;;;20.00;16.67;;;;;;;;5090614;27;45635;-80
2021/09/23 06:41:12;;;;;;;;;20.33;16.67;;;;;;;;5091211;27;45589;-80
2021/09/23 06:43:38;;;;;;;;;21.25;17.75;;;;;;;;5097682;27;45540;-79
2021/09/23 06:46:03;;;;;;;;;18.75;16.75;;;;;;;;5098778;27;46149;-80
2021/09/23 06:48:28;;;;;;;;;19.67;17.67;;;;;;;;5093401;27;45677;-81
2021/09/23 06:50:54;;;;;;;;;19.67;16.33;;;;;;;;5093175;27;45516;-81
2021/09/23 06:53:19;;;;;;;;;22.25;20.25;;;;;;;;5091958;27;45574;-81
2021/09/23 06:55:44;;;;;;;;;17.75;17.25;;;;;;;;5094252;27;46156;-80
2021/09/23 06:58:09;;;;;;;;;20.33;18.33;;;;;;;;5095732;27;45492;-80
2021/09/23 07:00:35;;;;;;;;;25.00;18.00;;;;;;;;5093765;27;45481;-80
2021/09/23 07:03:00;;;;;;;;;22.33;15.67;;;;;;;;5096407;27;45906;-80
2021/09/23 07:05:25;;;;;;;;;25.00;20.33;;;;;;;;5094052;27;45520;-80
2021/09/23 07:07:50;;;;;;;;;20.67;20.67;;;;;;;;5092841;27;45381;-81
2021/09/23 07:10:16;;;;;;;;;25.33;18.00;;;;;;;;5093134;27;45539;-80
2021/09/23 07:12:41;;;;;;;;;26.00;19.33;;;;;;;;5092609;27;45613;-81
2021/09/23 07:15:06;;;;;;;;;22.00;17.33;;;;;;;;5090731;27;46591;-81
2021/09/23 07:17:33;;;;;;;;;22.25;16.25;;;;;;;;5091876;27;45597;-81
2021/09/23 07:19:58;;;;;;;;;13.00;12.25;;;;;;;;5091990;27;45380;-81
2021/09/23 07:22:23;;;;;;;;;21.50;17.50;;;;;;;;5096091;27;45421;-80
2021/09/23 07:24:49;;;;;;;;;23.67;19.00;;;;;;;;5092041;27;48044;-81
2021/09/23 07:27:14;;;;;;;;;18.25;17.25;;;;;;;;5090990;27;45644;-79
2021/09/23 07:29:39;;;;;;;;;21.00;16.33;;;;;;;;5092009;27;45498;-80
2021/09/23 07:32:05;;;;;;;;;21.00;16.67;;;;;;;;5090239;27;45841;-80
2021/09/23 07:34:30;;;;;;;;;19.75;16.00;;;;;;;;5095477;27;46207;-80
2021/09/23 07:36:55;;;;;;;;;17.25;15.25;;;;;;;;5088419;27;46544;-80
2021/09/23 07:39:21;;;;;;;;;18.75;14.00;;;;;;;;5091763;27;45596;-80
2021/09/23 07:41:46;;;;;;;;;23.00;20.67;;;;;;;;5090541;27;46034;-80
2021/09/23 07:44:12;;;;;;;;;18.00;16.00;;;;;;;;5093321;27;45440;-79
2021/09/23 07:46:38;;;;;;;;;16.50;14.25;;;;;;;;5095261;27;45989;-78
2021/09/23 07:49:04;;;;;;;;;22.50;16.25;;;;;;;;5091315;27;45544;-79
2021/09/23 07:51:29;;;;;;;;;18.75;13.50;;;;;;;;5094012;27;46671;-78
2021/09/23 07:53:54;;;;;;;;;13.00;9.50;;;;;;;;5093999;27;46106;-79
2021/09/23 07:56:19;;;;;;;;;12.75;12.50;;;;;;;;5090374;27;45635;-79
2021/09/23 07:58:45;;;;;;;;;10.50;7.25;;;;;;;;5096838;27;45333;-80
2021/09/23 08:01:10;;;;;;;;;13.00;12.67;;;;;;;;5093389;27;46098;-78
2021/09/23 08:03:35;;;;;;;;;13.33;12.33;;;;;;;;5094466;27;46334;-78
2021/09/23 08:06:00;;;;;;;;;15.67;12.33;;;;;;;;5094591;27;45626;-79
2021/09/23 08:08:26;;;;;;;;;15.33;11.67;;;;;;;;5092326;27;45436;-79
2021/09/23 08:10:52;;;;;;;;;12.50;12.00;;;;;;;;5091321;27;45546;-80
2021/09/23 08:13:17;;;;;;;;;11.67;8.33;;;;;;;;5098425;27;46262;-79
2021/09/23 08:15:43;;;;;;;;;14.00;11.25;;;;;;;;5094009;27;45493;-78
2021/09/23 08:18:08;;;;;;;;;10.33;10.00;;;;;;;;5094835;27;45521;-78
2021/09/23 08:20:34;;;;;;;;;12.25;12.25;;;;;;;;5091445;27;45525;-78
2021/09/23 08:22:59;;;;;;;;;13.67;13.33;;;;;;;;5093165;27;48009;-77
2021/09/23 08:25:24;;;;;;;;;13.00;10.00;;;;;;;;5095521;27;45563;-80
2021/09/23 08:27:49;;;;;;;;;11.25;10.00;;;;;;;;5094608;27;45779;-79
2021/09/23 08:30:15;;;;;;;;;12.67;12.00;;;;;;;;5094809;27;45789;-80
2021/09/23 08:32:40;;;;;;;;;12.67;11.33;;;;;;;;5093723;27;45409;-80
2021/09/23 08:35:06;;;;;;;;;10.50;10.50;;;;;;;;5090723;27;45501;-80
2021/09/23 08:37:36;;;;;;;;;7.75;7.75;;;;;;;;5098242;27;45525;-80
2021/09/23 08:40:05;;;;;;;;;10.25;7.75;;;;;;;;5091839;27;45540;-80
2021/09/23 08:42:30;;;;;;;;;7.50;7.50;;;;;;;;5094050;27;46072;-79
2021/09/23 08:44:56;;;;;;;;;9.00;8.00;;;;;;;;5091586;27;45591;-80
2021/09/23 08:47:21;;;;;;;;;10.00;7.50;;;;;;;;5090333;27;45546;-80
2021/09/23 08:49:46;;;;;;;;;6.75;6.50;;;;;;;;5094379;27;45493;-80
2021/09/23 08:52:12;;;;;;;;;9.33;8.67;;;;;;;;5102333;27;45478;-80
2021/09/23 08:54:37;;;;;;;;;7.33;6.67;;;;;;;;5098656;27;48373;-80
2021/09/23 08:57:02;;;;;;;;;8.33;7.00;;;;;;;;5094308;27;45699;-80
2021/09/23 08:59:29;;;;;;;;;11.75;8.50;;;;;;;;5091486;27;45531;-80
2021/09/23 09:01:54;;;;;;;;;13.25;8.00;;;;;;;;5094352;27;46595;-80
2021/09/23 09:04:19;;;;;;;;;8.67;8.67;;;;;;;;5095772;27;45476;-81
2021/09/23 09:06:55;;;;;;;;;12.33;11.00;;;;;;;;5090405;27;45522;-80
2021/09/23 09:09:20;;;;;;;;;10.50;9.75;;;;;;;;5094179;27;45512;-79
2021/09/23 09:11:46;;;;;;;;;11.50;10.75;;;;;;;;5095153;27;45313;-79
2021/09/23 09:14:21;;;;;;;;;12.00;9.25;;;;;;;;5093475;27;45418;-79
2021/09/23 09:16:52;;;;;;;;;12.25;11.00;;;;;;;;5092323;27;45363;-79
2021/09/23 09:19:17;;;;;;;;;10.00;8.75;;;;;;;;5099093;27;45543;-80
2021/09/23 09:21:45;;;;;;;;;13.00;10.33;;;;;;;;5093938;27;45711;-79
2021/09/23 09:24:12;;;;;;;;;10.50;10.00;;;;;;;;5083531;27;46664;-79
2021/09/23 09:26:43;;;;;;;;;10.00;9.25;;;;;;;;5088681;27;45533;-80
2021/09/23 09:29:09;;;;;;;;;11.75;11.50;;;;;;;;5079455;27;45673;-79
2021/09/23 09:31:35;;;;;;;;;14.75;11.00;;;;;;;;5103916;27;47106;-79
2021/09/23 09:34:01;;;;;;;;;12.75;11.50;;;;;;;;5097638;27;45964;-81
2021/09/23 09:36:37;;;;;;;;;16.50;12.00;;;;;;;;5097857;27;45540;-81
2021/09/23 09:39:09;;;;;;;;;14.00;12.00;;;;;;;;5094578;27;45524;-78
2021/09/23 09:41:37;;;;;;;;;10.50;9.25;;;;;;;;5094770;27;45528;-80
2021/09/23 09:44:03;;;;;;;;;13.75;11.50;;;;;;;;5092237;27;45936;-80
2021/09/23 09:46:31;;;;;;;;;9.25;8.75;;;;;;;;5099611;27;45509;-80
2021/09/23 09:48:57;;;;;;;;;9.00;9.00;;;;;;;;5096930;27;45516;-79
2021/09/23 09:51:23;;;;;;;;;9.50;9.00;;;;;;;;5098234;27;45457;-79
2021/09/23 09:53:59;;;;;;;;;12.00;10.50;;;;;;;;5094039;27;46003;-80
2021/09/23 09:56:24;;;;;;;;;10.25;9.75;;;;;;;;5093871;27;45465;-80
2021/09/23 09:59:13;;;;;;;;;10.50;10.00;;;;;;;;5095335;27;45836;-79
2021/09/23 10:01:39;;;;;;;;;9.00;9.00;;;;;;;;5098283;27;48159;-79
2021/09/23 10:04:05;;;;;;;;;14.75;13.00;;;;;;;;5097362;27;45881;-79
2021/09/23 10:06:31;;;;;;;;;12.50;11.00;;;;;;;;5096743;27;45898;-79
2021/09/23 10:08:56;;;;;;;;;13.75;11.75;;;;;;;;5092312;27;45479;-80
2021/09/23 10:11:22;;;;;;;;;9.33;9.33;;;;;;;;5093736;27;45451;-79
2021/09/23 10:13:48;;;;;;;;;13.75;11.25;;;;;;;;5097279;27;45357;-79
2021/09/23 10:16:14;;;;;;;;;11.75;11.50;;;;;;;;5099838;27;45605;-80
2021/09/23 10:18:40;;;;;;;;;17.50;14.00;;;;;;;;5095997;27;45409;-79
2021/09/23 10:21:06;;;;;;;;;15.50;14.00;;;;;;;;5093673;27;46314;-80
2021/09/23 10:23:39;;;;;;;;;13.00;11.00;;;;;;;;5092314;27;45479;-80
2021/09/23 10:26:04;;;;;;;;;11.25;10.00;;;;;;;;5090891;27;45728;-80
2021/09/23 10:28:30;;;;;;;;;11.25;11.25;;;;;;;;5097872;27;46839;-80
2021/09/23 10:30:56;;;;;;;;;12.75;12.25;;;;;;;;5097327;27;46093;-80
2021/09/23 10:33:21;;;;;;;;;13.00;12.00;;;;;;;;5095986;27;45524;-80
2021/09/23 10:35:47;;;;;;;;;11.75;10.00;;;;;;;;5096850;27;45758;-80
2021/09/23 10:38:13;;;;;;;;;13.00;11.75;;;;;;;;5092172;27;45414;-80
2021/09/23 10:40:40;;;;;;;;;10.75;10.75;;;;;;;;5092477;27;47172;-80
2021/09/23 10:43:07;;;;;;;;;11.75;11.00;;;;;;;;5095330;27;45896;-80
2021/09/23 10:45:33;;;;;;;;;11.50;11.50;;;;;;;;5091652;27;45862;-80
2021/09/23 10:48:00;;;;;;;;;12.50;12.00;;;;;;;;5097471;27;45522;-80
2021/09/23 10:50:35;;;;;;;;;11.75;10.75;;;;;;;;5093529;27;45798;-80
2021/09/23 10:53:01;;;;;;;;;15.50;13.00;;;;;;;;5092641;27;45480;-80
2021/09/23 10:55:28;;;;;;;;;10.75;10.75;;;;;;;;5098640;27;45652;-78
2021/09/23 10:57:53;;;;;;;;;12.50;11.50;;;;;;;;5094659;27;45924;-78
2021/09/23 11:00:22;;;;;;;;;12.00;11.00;;;;;;;;5088788;27;47364;-79
2021/09/23 11:02:47;;;;;;;;;14.50;13.00;;;;;;;;5093834;27;45597;-78
2021/09/23 11:05:15;;;;;;;;;14.67;12.33;;;;;;;;5090336;27;45561;-78
2021/09/23 11:07:46;;;;;;;;;14.75;13.75;;;;;;;;5086898;27;45744;-79
2021/09/23 11:10:14;;;;;;;;;13.75;12.00;;;;;;;;5085368;27;46197;-78
2021/09/23 11:12:43;;;;;;;;;14.75;12.25;;;;;;;;5079696;27;45662;-74
2021/09/23 11:15:09;;;;;;;;;16.25;13.75;;;;;;;;5097394;27;45400;-75
2021/09/23 11:17:36;;;;;;;;;14.00;11.25;;;;;;;;5095675;27;45574;-74
2021/09/23 11:20:04;;;;;;;;;14.00;11.50;;;;;;;;5082002;27;46272;-74
2021/09/23 11:22:31;;;;;;;;;11.25;10.00;;;;;;;;5080943;27;45650;-73
2021/09/23 11:24:57;;;;;;;;;12.50;12.00;;;;;;;;5082576;27;45488;-74
2021/09/23 11:27:22;;;;;;;;;12.75;11.00;;;;;;;;5091472;27;45542;-74
2021/09/23 11:29:47;;;;;;;;;12.33;10.33;;;;;;;;5092367;27;46260;-74
2021/09/23 11:32:13;;;;;;;;;14.67;12.67;;;;;;;;5091052;27;46057;-74
2021/09/23 11:34:39;;;;;;;;;15.33;13.33;;;;;;;;5098120;27;45489;-74
2021/09/23 11:37:05;;;;;;;;;10.25;10.25;;;;;;;;5096333;27;45542;-74
2021/09/23 11:39:30;;;;;;;;;12.25;10.00;;;;;;;;5094723;27;47211;-74
2021/09/23 11:42:15;;;;;;;;;9.25;9.25;;;;;;;;5094001;27;45619;-68
2021/09/23 11:44:42;;;;;;;;;11.50;11.50;;;;;;;;5092500;27;45677;-69
2021/09/23 11:47:11;;;;;;;;;13.00;9.75;;;;;;;;5101910;27;45674;-70
2021/09/23 11:49:36;;;;;;;;;9.75;9.75;;;;;;;;5097969;27;46101;-68
2021/09/23 11:52:01;;;;;;;;;10.00;10.00;;;;;;;;5091088;27;45599;-68
2021/09/23 11:54:27;;;;;;;;;12.50;11.00;;;;;;;;5094218;27;45435;-77
2021/09/23 11:56:52;;;;;;;;;12.33;11.33;;;;;;;;5084055;27;48477;-78
2021/09/23 11:59:24;;;;;;;;;10.67;10.67;;;;;;;;5090114;27;45511;-78
2021/09/23 12:02:06;;;;;;;;;9.50;9.50;;;;;;;;5092184;27;45324;-77
2021/09/23 12:04:34;;;;;;;;;10.50;9.75;;;;;;;;5096110;27;45521;-77
2021/09/23 12:07:03;;;;;;;;;12.00;10.25;;;;;;;;5095215;27;45524;-70
2021/09/23 12:09:28;;;;;;;;;10.75;10.75;;;;;;;;5091359;27;46139;-69
2021/09/23 12:11:54;;;;;;;;;11.00;9.25;;;;;;;;5095151;27;45592;-70
2021/09/23 12:14:19;;;;;;;;;13.50;12.25;;;;;;;;5089719;27;45650;-69
2021/09/23 12:16:45;;;;;;;;;12.50;11.00;;;;;;;;5097562;27;46155;-70
2021/09/23 12:19:17;;;;;;;;;11.75;10.75;;;;;;;;5094394;27;45900;-69
2021/09/23 12:21:50;;;;;;;;;11.00;8.75;;;;;;;;5094366;27;45906;-69
2021/09/23 12:24:15;;;;;;;;;11.75;10.00;;;;;;;;5093865;27;45471;-69
2021/09/23 12:26:41;;;;;;;;;8.00;8.00;;;;;;;;5092986;27;45562;-69
2021/09/23 12:29:06;;;;;;;;;13.00;11.50;;;;;;;;5091483;27;46228;-69
2021/09/23 12:31:38;;;;;;;;;12.33;9.67;;;;;;;;5095619;27;45318;-68
2021/09/23 12:34:05;;;;;;;;;9.50;9.50;;;;;;;;5097047;27;45750;-68
2021/09/23 12:36:32;;;;;;;;;12.25;10.25;;;;;;;;5104066;27;45585;-69
2021/09/23 12:39:11;;;;;;;;;13.00;11.25;;;;;;;;5095934;27;46974;-70
2021/09/23 12:41:37;;;;;;;;;12.00;10.00;;;;;;;;5089459;27;45363;-69
2021/09/23 12:44:03;;;;;;;;;11.00;11.00;;;;;;;;5096420;27;45616;-69
2021/09/23 12:46:29;;;;;;;;;13.00;10.75;;;;;;;;5092890;27;45520;-69
2021/09/23 12:49:10;;;;;;;;;14.75;12.00;;;;;;;;5085299;27;46503;-68
2021/09/23 12:51:36;;;;;;;;;9.00;9.00;;;;;;;;5082664;27;45660;-68
2021/09/23 12:54:17;;;;;;;;;11.75;11.75;;;;;;;;5085597;27;45508;-69
2021/09/23 12:56:42;;;;;;;;;10.75;9.75;;;;;;;;5085907;27;45604;-68
2021/09/23 12:59:23;;;;;;;;;12.00;10.50;;;;;;;;5087585;27;45921;-68
2021/09/23 13:02:06;;;;;;;;;13.50;10.00;;;;;;;;5089643;27;46073;-69
2021/09/23 13:04:31;;;;;;;;;10.00;10.00;;;;;;;;5092332;27;45441;-69
2021/09/23 13:06:56;;;;;;;;;17.50;13.75;;;;;;;;5081926;27;46179;-69
2021/09/23 13:09:22;;;;;;;;;13.75;11.25;;;;;;;;5083112;27;45975;-70
2021/09/23 13:11:47;;;;;;;;;12.75;12.25;;;;;;;;5089004;27;45637;-67
2021/09/23 13:14:19;;;;;;;;;11.00;10.00;;;;;;;;5088688;27;45612;-69
2021/09/23 13:16:44;;;;;;;;;13.50;10.50;;;;;;;;5091695;27;45655;-69
2021/09/23 13:19:10;;;;;;;;;10.00;9.75;;;;;;;;5086986;27;46887;-69
2021/09/23 13:21:37;;;;;;;;;11.00;10.00;;;;;;;;5087690;27;45540;-69
2021/09/23 13:24:02;;;;;;;;;14.00;12.00;;;;;;;;5087341;27;45587;-66
2021/09/23 13:26:27;;;;;;;;;14.00;14.00;;;;;;;;5089084;27;45603;-67
2021/09/23 13:28:52;;;;;;;;;14.33;11.67;;;;;;;;5089562;27;45608;-68
2021/09/23 13:31:18;;;;;;;;;9.67;8.33;;;;;;;;5090394;27;45650;-69
2021/09/23 13:33:44;;;;;;;;;14.00;11.00;;;;;;;;5085716;27;45626;-69
2021/09/23 13:36:11;;;;;;;;;13.50;10.25;;;;;;;;5085909;27;45523;-68
2021/09/23 13:38:37;;;;;;;;;9.50;8.75;;;;;;;;5086372;27;46480;-69
2021/09/23 13:41:03;;;;;;;;;7.25;7.25;;;;;;;;5088915;27;46243;-68
2021/09/23 13:43:29;;;;;;;;;9.50;8.25;;;;;;;;5100229;27;45524;-68
2021/09/23 13:45:54;;;;;;;;;10.50;10.50;;;;;;;;5087449;27;45477;-71
2021/09/23 13:48:20;;;;;;;;;6.75;6.75;;;;;;;;5082055;27;45893;-69
2021/09/23 13:50:46;;;;;;;;;8.25;8.25;;;;;;;;5086309;27;45547;-69
2021/09/23 13:53:12;;;;;;;;;6.75;6.75;;;;;;;;5083233;27;45902;-69
2021/09/23 13:55:37;;;;;;;;;11.00;10.00;;;;;;;;5085709;27;45601;-70
2021/09/23 13:58:03;;;;;;;;;12.00;10.50;;;;;;;;5082038;27;45859;-68
2021/09/23 14:00:31;;;;;;;;;9.75;9.75;;;;;;;;5085926;27;45541;-69
2021/09/23 14:02:56;;;;;;;;;8.50;7.25;;;;;;;;5079382;27;45502;-69
2021/09/23 14:05:21;;;;;;;;;7.50;7.50;;;;;;;;5080439;27;45253;-69
2021/09/23 14:07:47;;;;;;;;;6.67;6.67;;;;;;;;5088339;27;45434;-69
2021/09/23 14:10:13;;;;;;;;;7.50;7.50;;;;;;;;5092393;27;45769;-69
2021/09/23 14:12:39;;;;;;;;;7.50;7.50;;;;;;;;5084615;27;45507;-69
2021/09/23 14:15:05;;;;;;;;;7.50;7.50;;;;;;;;5082856;27;45485;-69